< Typhoon 202201 2022 Season
Typhoon 202202 (MEGI)
General InformationTrack Information on Google MapsDetailed Wind InformationForecast History on Google MapsAccess Analytics MapList of All Images || NewsDisaster Info.WeblogTrackbackTyphoon FrontTwiphoonTyphoon Now!Typhoon ImaginationJMA Disaster Info. XMLResourceGoogle EarthGE AnimationAtom FeedGeoJSON
Detalied Best Track (Time Zone = UTC)
Year Month Day Hour Lat. Long. Pressure (hPa) Wind (kt) Class Image Chart
2022 4 9 00 10.7 127.1 1004 30 2 Image Chart
2022 4 9 03 10.7 126.8 1004 30 2 Image Chart
2022 4 9 06 10.7 126.8 1002 30 2 Image Chart
2022 4 9 09 10.8 126.5 1002 30 2 Image Chart
2022 4 9 12 10.9 126.0 1002 30 2 Image Chart
2022 4 9 15 10.9 125.9 1002 30 2 Image Chart
2022 4 9 18 10.8 125.9 1002 30 2 Image Chart
2022 4 9 21 10.6 125.9 1000 30 2 Image Chart
2022 4 10 00 10.8 125.8 998 35 3 Image Chart
2022 4 10 03 10.7 125.6 998 35 3 Image Chart
2022 4 10 06 10.7 125.6 998 35 3 Image Chart
2022 4 10 09 10.8 125.3 998 35 3 Image Chart
2022 4 10 12 10.8 125.2 1000 35 3 Image Chart
2022 4 10 15 10.8 125.2 1000 35 3 Image Chart
2022 4 10 18 10.8 125.1 1000 35 3 Image Chart
2022 4 10 21 10.9 125.0 1000 35 3 Image Chart
2022 4 11 00 11.0 125.0 1000 35 3 Image Chart
2022 4 11 03 10.8 125.1 1000 35 3 Image Chart
2022 4 11 06 11.0 125.1 1000 35 3 Image Chart
2022 4 11 09 11.2 125.3 1000 35 3 Image Chart
2022 4 11 12 11.1 125.4 1000 35 3 Image Chart
2022 4 11 15 11.1 125.4 1000 35 3 Image Chart
2022 4 11 18 11.2 125.3 1000 35 3 Image Chart
2022 4 11 21 11.3 125.2 1002 35 3 Image Chart
2022 4 12 00 11.3 125.4 1002 35 3 Image Chart
2022 4 12 03 11.3 125.7 1002 35 3 Image Chart
2022 4 12 06 11.0 126.0 1002 0 2 Image Chart
2022 5 12 06 11.0 126.0 1002 0 2 Image Chart
Japan Meteorological Agency Best Track Data | Correction Date : 2022-05-12
< Typhoon 202201 2022 Season

Help